Airport View

Enter AWOS ICAO identifier for current METAR.

ex. KFNL

PAKK 202256Z AUTO 13004KT 10SM OVC009 02/00 A3056 RMK AO2 SLP359 T00170000 FZRANO

20 Oct 2020 23:25

Frequency: 134.95

Phone: 907-963-4000

Other Area AWOS: PFSH - PFEL - PAGL - PAWM

TAF AMD PAUN 201916Z 2019/2118 27006KT P6SM BKN020 FM202100 25005KT P6SM OVC030